Endeavour — C6BE4 — position and weather

sailwx.info

Track history (hours):
 
Tides and Currents Weather Stations Pressure Air Temp Water Temp Dewpoint Dewpoint Depression Visibility Wind Speed Wind Dir Waves Ship Positions

Endeavour

Operator: Lindblad Expeditions

Last reported at 2017-Sep-21 22:43 UTC. Time now 2017-Sep-25 10:07 UTC.
Position N 01°16' E 104°07'.

Length 190 m; draft 12.7 m.

Type: Cargo ship. MMSI: 311000239.

Date/timePositionNaut miles runAvg speedWind from/ knotsBaromVisibWave heightAir tempDewpointWater temp
2017-Sep-21 22:43N 01°16' E 104°07'1 2.8
2017-Sep-21 22:30N 01°16' E 104°07'2 2.9
2017-Sep-21 21:59N 01°15' E 104°05'1 3.0
2017-Sep-21 21:30N 01°15' E 104°04'1 2.9
2017-Sep-21 21:00N 01°15' E 104°02'5 0.6
2017-Sep-21 12:20N 01°16' E 104°08'412.2
2017-Sep-21 11:59N 01°15' E 104°03'612.3
2017-Sep-21 11:31N 01°14' E 103°58'713.2
2017-Sep-21 11:01N 01°11' E 103°52'713.1
2017-Sep-21 10:31N 01°08' E 103°46'612.9
2017-Sep-21 10:01N 01°04' E 103°41'611.0
2017-Sep-21 09:30N 01°04' E 103°36'612.4
2017-Sep-21 09:01N 01°08' E 103°31'612.8
2017-Sep-21 08:31N 01°11' E 103°25'712.7
2017-Sep-21 07:58N 01°15' E 103°20'  
Track history (hours):
 
Tides and Currents Weather Stations Pressure Air Temp Water Temp Dewpoint Dewpoint Depression Visibility Wind Speed Wind Dir Waves Ship Positions

Endeavour

Operator: Lindblad Expeditions

Last reported at 2017-Sep-21 22:43 UTC. Time now 2017-Sep-25 10:07 UTC.
Position N 01°16' E 104°07'.

Length 190 m; draft 12.7 m.

Type: Cargo ship. MMSI: 311000239.

Date/timePositionNaut miles runAvg speedWind from/ knotsBaromVisibWave heightAir tempDewpointWater temp
2017-Sep-21 22:43N 01°16' E 104°07'1 2.8
2017-Sep-21 22:30N 01°16' E 104°07'2 2.9
2017-Sep-21 21:59N 01°15' E 104°05'1 3.0
2017-Sep-21 21:30N 01°15' E 104°04'1 2.9
2017-Sep-21 21:00N 01°15' E 104°02'5 0.6
2017-Sep-21 12:20N 01°16' E 104°08'412.2
2017-Sep-21 11:59N 01°15' E 104°03'612.3
2017-Sep-21 11:31N 01°14' E 103°58'713.2
2017-Sep-21 11:01N 01°11' E 103°52'713.1
2017-Sep-21 10:31N 01°08' E 103°46'612.9
2017-Sep-21 10:01N 01°04' E 103°41'611.0
2017-Sep-21 09:30N 01°04' E 103°36'612.4
2017-Sep-21 09:01N 01°08' E 103°31'612.8
2017-Sep-21 08:31N 01°11' E 103°25'712.7
2017-Sep-21 07:58N 01°15' E 103°20'  

Dump ship's entire track history